Portada
METAR-TAF:

METAR-TAF

Aeroports :

Oshkosh, Wisconsin, Estats Units d'Amèrica

Wittman Regional Airport

latitud: 43-58-00N, longitud: 088-33-29W, altitud: 246 m

Observació

L'informe es va fer fa 15 hores i 45 minuts, a les 15:04 UTC
Vent 3 kt amb direcció variable
Temperatura 0°C
Humitat 93%
Pressió 1009 hPa
Visibilitat: 9.7 km
Núvols disperses a una alçada de 2300 ft
Cel ennuvolat a una alçada de 9500 ft
Cel cobert a una alçada de 11000 ft
boirina

METAR: KOSH 201504Z VRB03KT 6SM BR SCT023 BKN095 OVC110 00/M01 A2979 RMK AO2 UPE03 P0000 T00001006

Hora: 00:49 (06:49 UTC)


TAF: manca

Observacions i pronòstics meteorològics de més de 4000 aeroports (METAR i TAF).

Les estacions disponibles són els punts grocs i vermells al mapa.

Posi el ratolí al punt desitjat per veure el nom de l'estació.

Feu clic per veure les observacions i els pronòstics meteorològics.

Per canviar el mapa: feu clic els botons verds amb una creu de color negre per apropar; al botó verd amb un guió per allunyar la imatge; o en les fletxes verdes per a mapes adjacents.


METAR-TAF: